createdAt,value
2023-08-29T00:04:04.491Z,14.47
2023-08-29T00:09:06.525Z,14.60
2023-08-29T00:14:10.055Z,14.56
2023-08-29T00:19:12.263Z,14.52
2023-08-29T00:24:14.644Z,14.34
2023-08-29T00:29:18.143Z,14.36
2023-08-29T00:34:20.316Z,14.25
2023-08-29T00:39:22.512Z,14.25
2023-08-29T00:44:26.424Z,14.36
2023-08-29T00:49:29.140Z,14.45
2023-08-29T00:54:31.365Z,14.66
2023-08-29T00:59:35.161Z,14.57
2023-08-29T01:04:37.466Z,14.54
2023-08-29T01:09:40.131Z,14.58
2023-08-29T01:14:51.995Z,14.48
2023-08-29T01:19:55.043Z,14.39
2023-08-29T01:25:03.202Z,14.38
2023-08-29T01:30:08.329Z,14.36
2023-08-29T01:35:14.597Z,14.30
2023-08-29T01:40:16.742Z,14.29
2023-08-29T01:45:20.524Z,14.32
2023-08-29T01:50:23.628Z,14.47
2023-08-29T01:55:26.922Z,14.63
2023-08-29T02:00:32.119Z,14.73
2023-08-29T02:05:34.344Z,15.25
2023-08-29T02:10:36.521Z,15.21
2023-08-29T02:15:40.042Z,15.09
2023-08-29T02:20:42.222Z,15.01
2023-08-29T02:25:44.827Z,14.99
2023-08-29T02:30:48.311Z,15.10
2023-08-29T02:35:50.783Z,15.22
2023-08-29T02:40:53.130Z,14.87
2023-08-29T02:45:56.681Z,14.96
2023-08-29T02:50:58.480Z,14.88
2023-08-29T02:56:00.620Z,15.12
2023-08-29T03:01:03.977Z,15.50
2023-08-29T03:06:06.259Z,15.69
2023-08-29T03:11:08.492Z,15.88
2023-08-29T03:16:18.111Z,16.05
2023-08-29T03:21:22.180Z,16.11
2023-08-29T03:26:24.705Z,16.16
2023-08-29T03:31:27.821Z,16.15
2023-08-29T03:36:29.914Z,16.18
2023-08-29T03:41:31.955Z,16.36
2023-08-29T03:46:35.568Z,16.31
2023-08-29T03:51:37.752Z,16.13
2023-08-29T03:56:40.986Z,16.21
2023-08-29T04:01:44.682Z,16.16
2023-08-29T04:06:46.705Z,16.02
2023-08-29T04:11:48.783Z,16.03
2023-08-29T04:16:52.352Z,16.07
2023-08-29T04:21:54.325Z,15.83
2023-08-29T04:26:56.747Z,15.58
2023-08-29T04:32:00.121Z,15.57
2023-08-29T04:37:02.279Z,15.46
2023-08-29T04:42:04.645Z,15.73
2023-08-29T04:47:08.016Z,15.78
2023-08-29T04:52:10.148Z,15.86
2023-08-29T04:57:12.284Z,15.63
2023-08-29T05:02:16.178Z,15.64
2023-08-29T05:07:18.265Z,15.94
2023-08-29T05:12:20.410Z,15.92
2023-08-29T05:17:23.868Z,16.01
2023-08-29T05:22:26.097Z,16.07
2023-08-29T05:27:28.518Z,16.02
2023-08-29T05:32:31.940Z,16.06
2023-08-29T05:37:34.168Z,16.13
2023-08-29T05:42:36.270Z,16.17
2023-08-29T05:47:39.786Z,16.14
2023-08-29T05:52:42.170Z,15.73
2023-08-29T05:57:44.345Z,15.85
2023-08-29T06:02:47.876Z,16.21
2023-08-29T06:07:49.724Z,16.09
2023-08-29T06:12:51.914Z,16.28
2023-08-29T06:17:55.655Z,16.52
2023-08-29T06:22:58.033Z,16.64
2023-08-29T06:28:00.281Z,16.77
2023-08-29T06:33:04.067Z,16.79
2023-08-29T06:38:06.837Z,16.92
2023-08-29T06:43:09.194Z,16.93
2023-08-29T06:48:12.713Z,17.05
2023-08-29T06:53:14.861Z,17.00
2023-08-29T06:58:17.051Z,16.79
2023-08-29T07:03:21.001Z,16.23
2023-08-29T07:08:23.524Z,16.79
2023-08-29T07:13:25.528Z,17.08
2023-08-29T07:18:28.950Z,17.00
2023-08-29T07:23:31.744Z,17.00
2023-08-29T07:28:34.169Z,16.90
2023-08-29T07:33:37.884Z,16.93
2023-08-29T07:38:40.402Z,17.43
2023-08-29T07:43:42.494Z,17.36
2023-08-29T07:48:45.603Z,17.35
2023-08-29T07:53:48.135Z,17.89
2023-08-29T07:58:50.506Z,18.41
2023-08-29T08:03:54.302Z,18.91
2023-08-29T08:08:56.516Z,18.10
2023-08-29T08:13:59.759Z,17.89
2023-08-29T08:19:03.309Z,17.10
2023-08-29T08:24:06.249Z,17.19
2023-08-29T08:29:08.264Z,17.50
2023-08-29T08:34:11.901Z,17.62
2023-08-29T08:39:14.119Z,17.99
2023-08-29T08:44:17.171Z,17.99
2023-08-29T08:49:20.811Z,17.57
2023-08-29T08:54:24.524Z,17.73
2023-08-29T08:59:27.377Z,17.16
2023-08-29T09:04:30.875Z,17.71
2023-08-29T09:09:32.993Z,17.24
2023-08-29T09:14:35.261Z,17.23
2023-08-29T09:19:38.821Z,18.52
2023-08-29T09:24:42.149Z,18.81
2023-08-29T09:29:44.695Z,18.58
2023-08-29T09:34:48.263Z,18.67
2023-08-29T09:39:50.233Z,18.34
2023-08-29T09:44:52.316Z,19.39
2023-08-29T09:49:55.788Z,19.55
2023-08-29T09:55:00.315Z,19.60
2023-08-29T10:00:03.185Z,19.66
2023-08-29T10:05:10.037Z,19.59
2023-08-29T10:10:12.221Z,19.26
2023-08-29T10:15:14.818Z,19.12
2023-08-29T10:20:18.706Z,18.56
2023-08-29T10:25:22.553Z,18.80
2023-08-29T10:30:26.447Z,18.88
2023-08-29T10:35:32.912Z,19.66
2023-08-29T10:40:36.188Z,19.87
2023-08-29T10:45:47.746Z,19.68
2023-08-29T10:51:11.105Z,19.25
2023-08-29T10:56:13.294Z,19.35
2023-08-29T11:01:32.311Z,19.57
2023-08-29T11:06:55.741Z,19.77
2023-08-29T11:12:08.386Z,19.31
2023-08-29T11:17:13.907Z,18.90
2023-08-29T11:22:18.000Z,19.50
2023-08-29T11:27:20.144Z,19.58
2023-08-29T11:32:22.950Z,19.11
2023-08-29T11:37:31.705Z,19.45
2023-08-29T11:43:10.383Z,19.40
2023-08-29T11:47:56.317Z,19.39
2023-08-29T11:52:59.853Z,20.68
2023-08-29T11:58:02.184Z,20.10
2023-08-29T12:03:04.509Z,20.03
2023-08-29T12:08:08.286Z,19.66
2023-08-29T12:13:13.695Z,19.27
2023-08-29T12:18:24.029Z,19.67
2023-08-29T12:23:28.312Z,18.98
2023-08-29T12:28:30.529Z,18.64
2023-08-29T12:33:33.079Z,18.89
2023-08-29T12:38:36.571Z,18.85
2023-08-29T12:43:38.329Z,18.84
2023-08-29T12:48:40.433Z,18.70
2023-08-29T12:53:43.656Z,18.49
2023-08-29T12:58:45.491Z,18.71
2023-08-29T13:03:47.450Z,19.10
2023-08-29T13:08:50.670Z,19.25
2023-08-29T13:13:52.414Z,18.98
2023-08-29T13:18:54.468Z,18.37
2023-08-29T13:23:57.565Z,17.88
2023-08-29T13:28:59.325Z,17.86
2023-08-29T13:34:01.334Z,17.93
2023-08-29T13:39:04.890Z,17.45
2023-08-29T13:44:07.061Z,17.58
2023-08-29T13:49:09.079Z,17.56
2023-08-29T13:54:12.454Z,17.45
2023-08-29T13:59:14.653Z,17.93
2023-08-29T14:04:16.815Z,17.94
2023-08-29T14:09:20.325Z,18.34
2023-08-29T14:14:22.564Z,18.33
2023-08-29T14:19:25.044Z,18.44
2023-08-29T14:24:28.163Z,18.49
2023-08-29T14:29:30.559Z,18.46
2023-08-29T14:34:32.538Z,18.31
2023-08-29T14:39:35.692Z,18.68
2023-08-29T14:44:38.107Z,18.23
2023-08-29T14:49:39.911Z,18.36
2023-08-29T14:54:43.406Z,17.51
2023-08-29T14:59:45.673Z,16.94
2023-08-29T15:04:47.824Z,16.54
2023-08-29T15:09:51.421Z,16.18
2023-08-29T15:14:53.590Z,15.77
2023-08-29T15:19:55.343Z,16.12
2023-08-29T15:24:58.445Z,16.20
2023-08-29T15:30:00.662Z,16.61
2023-08-29T15:35:05.813Z,16.61
2023-08-29T15:40:09.697Z,16.80
2023-08-29T15:45:11.767Z,16.68
2023-08-29T15:50:13.540Z,16.60
2023-08-29T15:55:17.125Z,16.68
2023-08-29T16:00:19.268Z,16.77
2023-08-29T16:05:21.174Z,16.40
2023-08-29T16:10:24.398Z,16.45
2023-08-29T16:15:26.144Z,16.60
2023-08-29T16:20:28.008Z,16.44
2023-08-29T16:25:31.697Z,16.69
2023-08-29T16:30:34.419Z,16.46
2023-08-29T16:35:36.634Z,16.38
2023-08-29T16:40:41.054Z,16.13
2023-08-29T16:45:42.928Z,16.44
2023-08-29T16:50:45.808Z,16.46
2023-08-29T16:55:48.943Z,16.41
2023-08-29T17:00:51.025Z,16.20
2023-08-29T17:05:53.280Z,16.50
2023-08-29T17:10:56.862Z,16.39
2023-08-29T17:15:59.044Z,16.09
2023-08-29T17:21:01.202Z,16.15
2023-08-29T17:26:04.935Z,16.23
2023-08-29T17:31:10.224Z,16.31
2023-08-29T17:36:12.704Z,15.81
2023-08-29T17:41:17.237Z,16.09
2023-08-29T17:46:19.504Z,16.22
2023-08-29T17:51:21.635Z,16.16
2023-08-29T17:56:25.350Z,15.80
2023-08-29T18:01:27.815Z,15.86
2023-08-29T18:06:29.682Z,15.92
2023-08-29T18:11:33.431Z,15.68
2023-08-29T18:16:35.869Z,15.48
2023-08-29T18:21:38.375Z,15.61
2023-08-29T18:26:41.970Z,15.99
2023-08-29T18:31:43.815Z,15.81
2023-08-29T18:36:46.501Z,15.87
2023-08-29T18:41:50.103Z,15.60
2023-08-29T18:46:52.004Z,15.56
2023-08-29T18:51:54.432Z,15.21
2023-08-29T18:56:57.595Z,15.12
2023-08-29T19:01:59.577Z,14.93
2023-08-29T19:07:01.877Z,14.86
2023-08-29T19:12:05.795Z,15.06
2023-08-29T19:17:07.992Z,14.87
2023-08-29T19:22:10.086Z,14.95
2023-08-29T19:27:21.771Z,14.76
2023-08-29T19:32:27.390Z,14.66
2023-08-29T19:37:29.827Z,14.80
2023-08-29T19:42:33.065Z,15.14
2023-08-29T19:47:35.368Z,14.97
2023-08-29T19:52:37.607Z,14.99
2023-08-29T19:57:41.413Z,14.73
2023-08-29T20:02:44.229Z,14.75
2023-08-29T20:07:46.530Z,14.95
2023-08-29T20:12:50.026Z,15.10
2023-08-29T20:17:52.715Z,14.68
2023-08-29T20:22:54.914Z,14.67
2023-08-29T20:27:58.224Z,14.34
2023-08-29T20:33:00.423Z,14.45
2023-08-29T20:38:02.621Z,14.49
2023-08-29T20:43:06.294Z,14.55
2023-08-29T20:48:08.865Z,14.36
2023-08-29T20:53:11.210Z,14.43
2023-08-29T20:58:14.899Z,14.36
2023-08-29T21:03:17.173Z,14.15
2023-08-29T21:08:19.498Z,14.18
2023-08-29T21:13:24.296Z,14.08
2023-08-29T21:18:26.529Z,14.01
2023-08-29T21:23:31.970Z,13.96
2023-08-29T21:28:35.539Z,14.06
2023-08-29T21:33:37.654Z,14.38
2023-08-29T21:38:40.264Z,14.73
2023-08-29T21:43:43.860Z,14.51
2023-08-29T21:48:46.032Z,14.57
2023-08-29T21:53:48.018Z,14.58
2023-08-29T21:58:51.376Z,14.49
2023-08-29T22:03:53.938Z,14.53
2023-08-29T22:08:55.939Z,14.36
2023-08-29T22:13:59.653Z,14.37
2023-08-29T22:19:01.959Z,14.14
2023-08-29T22:24:04.299Z,13.99
2023-08-29T22:29:08.072Z,14.33
2023-08-29T22:34:10.109Z,14.21
2023-08-29T22:39:13.861Z,14.33
2023-08-29T22:44:18.178Z,14.28
2023-08-29T22:49:20.693Z,14.22
2023-08-29T22:54:23.149Z,14.05
2023-08-29T22:59:27.247Z,13.94
2023-08-29T23:04:29.521Z,14.28
2023-08-29T23:09:32.602Z,14.00
2023-08-29T23:14:36.221Z,14.00
2023-08-29T23:19:38.365Z,13.85
2023-08-29T23:24:40.196Z,13.75
2023-08-29T23:29:43.580Z,13.72
2023-08-29T23:34:45.517Z,13.75
2023-08-29T23:39:47.859Z,13.68
2023-08-29T23:44:51.663Z,13.63
2023-08-29T23:49:53.836Z,13.64
2023-08-29T23:54:55.930Z,13.66
2023-08-29T23:59:59.526Z,13.94
